createdAt,value
2016-01-26T00:00:58.404Z,1016.34
2016-01-26T00:01:58.454Z,1016.35
2016-01-26T00:02:58.505Z,1016.31
2016-01-26T00:03:58.570Z,1016.29
2016-01-26T00:04:58.623Z,1016.27
2016-01-26T00:05:58.690Z,1016.29
2016-01-26T00:06:58.739Z,1016.31
2016-01-26T00:07:58.789Z,1016.35
2016-01-26T00:08:58.842Z,1016.36
2016-01-26T00:09:58.907Z,1016.38
2016-01-26T00:10:58.957Z,1016.41
2016-01-26T00:11:59.006Z,1016.37
2016-01-26T00:12:59.072Z,1016.37
2016-01-26T00:13:59.122Z,1016.4
2016-01-26T00:14:59.186Z,1016.36
2016-01-26T00:15:59.236Z,1016.4
2016-01-26T00:16:59.286Z,1016.36
2016-01-26T00:17:59.337Z,1016.33
2016-01-26T00:18:59.418Z,1016.29
2016-01-26T00:19:59.451Z,1016.27
2016-01-26T00:20:59.505Z,1016.24
2016-01-26T00:21:59.570Z,1016.26
2016-01-26T00:22:59.620Z,1016.31
2016-01-26T00:23:59.685Z,1016.33
2016-01-26T00:24:59.735Z,1016.29
2016-01-26T00:25:59.784Z,1016.34
2016-01-26T00:26:59.850Z,1016.28
2016-01-26T00:27:59.900Z,1016.32
2016-01-26T00:28:59.950Z,1016.33
2016-01-26T00:30:00.018Z,1016.34
2016-01-26T00:31:00.084Z,1016.34
2016-01-26T00:32:00.133Z,1016.38
2016-01-26T00:33:00.199Z,1016.37
2016-01-26T00:34:00.234Z,1016.4
2016-01-26T00:35:00.284Z,1016.45
2016-01-26T00:36:00.333Z,1016.54
2016-01-26T00:37:00.399Z,1016.55
2016-01-26T00:38:00.466Z,1016.49
2016-01-26T00:39:00.500Z,1016.46
2016-01-26T00:40:00.565Z,1016.48
2016-01-26T00:41:00.616Z,1016.54
2016-01-26T00:42:00.680Z,1016.51
2016-01-26T00:43:00.730Z,1016.54
2016-01-26T00:44:00.780Z,1016.49
2016-01-26T00:45:00.846Z,1016.44
2016-01-26T00:46:00.897Z,1016.46
2016-01-26T00:47:00.962Z,1016.49
2016-01-26T00:48:01.011Z,1016.6
2016-01-26T00:49:01.060Z,1016.61
2016-01-26T00:50:01.128Z,1016.56
2016-01-26T00:51:01.178Z,1016.51
2016-01-26T00:52:01.227Z,1016.51
2016-01-26T00:53:01.295Z,1016.52
2016-01-26T00:54:01.343Z,1016.57
2016-01-26T00:55:01.394Z,1016.6
2016-01-26T00:56:01.449Z,1016.58
2016-01-26T00:57:01.499Z,1016.64
2016-01-26T00:58:01.567Z,1016.65
2016-01-26T00:59:01.663Z,1016.68
2016-01-26T01:00:01.666Z,1016.75
2016-01-26T01:01:01.732Z,1016.78
2016-01-26T01:02:01.781Z,1016.78
2016-01-26T01:03:01.831Z,1016.76
2016-01-26T01:04:01.895Z,1016.77
2016-01-26T01:05:01.961Z,1016.76
2016-01-26T01:06:02.012Z,1016.73
2016-01-26T01:07:02.062Z,1016.77
2016-01-26T01:08:02.114Z,1016.79
2016-01-26T01:09:02.179Z,1016.77
2016-01-26T01:10:02.263Z,1016.81
2016-01-26T01:11:02.281Z,1016.88
2016-01-26T01:12:02.330Z,1016.79
2016-01-26T01:13:02.398Z,1016.74
2016-01-26T01:14:02.448Z,1016.69
2016-01-26T01:15:02.497Z,1016.74
2016-01-26T01:16:02.564Z,1016.82
2016-01-26T01:17:02.613Z,1016.86
2016-01-26T01:18:02.663Z,1016.84
2016-01-26T01:19:02.728Z,1016.93
2016-01-26T01:20:02.777Z,1016.95
2016-01-26T01:21:02.843Z,1016.96
2016-01-26T01:22:02.893Z,1016.95
2016-01-26T01:23:02.942Z,1016.91
2016-01-26T01:24:03.008Z,1016.94
2016-01-26T01:25:03.060Z,1016.87
2016-01-26T01:26:03.174Z,1016.83
2016-01-26T01:27:03.165Z,1016.81
2016-01-26T01:28:03.216Z,1016.72
2016-01-26T01:29:03.265Z,1016.65
2016-01-26T01:30:03.331Z,1016.61
2016-01-26T01:31:03.396Z,1016.56
2016-01-26T01:32:03.445Z,1016.47
2016-01-26T01:33:03.496Z,1016.47
2016-01-26T01:34:03.545Z,1016.52
2016-01-26T01:35:03.616Z,1016.63
2016-01-26T01:36:03.667Z,1016.64
2016-01-26T01:37:03.716Z,1016.63
2016-01-26T01:38:03.781Z,1016.62
2016-01-26T01:39:03.831Z,1016.59
2016-01-26T01:40:03.883Z,1016.56
2016-01-26T01:41:03.948Z,1016.48
2016-01-26T01:42:03.999Z,1016.46
2016-01-26T01:43:04.048Z,1016.49
2016-01-26T01:44:04.098Z,1016.44
2016-01-26T01:45:04.165Z,1016.42
2016-01-26T01:46:04.230Z,1016.4
2016-01-26T01:47:04.280Z,1016.42
2016-01-26T01:48:04.330Z,1016.43
2016-01-26T01:49:04.394Z,1016.43
2016-01-26T01:50:04.444Z,1016.46
2016-01-26T01:51:04.494Z,1016.39
2016-01-26T01:52:04.544Z,1016.32
2016-01-26T01:53:04.610Z,1016.4
2016-01-26T01:54:04.660Z,1016.32
2016-01-26T01:55:04.725Z,1016.38
2016-01-26T01:56:04.776Z,1016.3
2016-01-26T01:57:04.823Z,1016.24
2016-01-26T01:58:04.888Z,1016.21
2016-01-26T01:59:04.937Z,1016.23
2016-01-26T02:00:04.989Z,1016.26
2016-01-26T02:01:05.054Z,1016.36
2016-01-26T02:02:05.103Z,1016.34
2016-01-26T02:03:05.153Z,1016.25
2016-01-26T02:04:05.217Z,1016.15
2016-01-26T02:05:05.270Z,1016.15
2016-01-26T02:06:05.319Z,1016.24
2016-01-26T02:07:05.385Z,1016.29
2016-01-26T02:08:05.435Z,1016.4
2016-01-26T02:09:05.500Z,1016.39
2016-01-26T02:10:05.550Z,1016.43
2016-01-26T02:11:05.600Z,1016.32
2016-01-26T02:12:05.664Z,1016.27
2016-01-26T02:13:05.714Z,1016.3
2016-01-26T02:14:05.765Z,1016.31
2016-01-26T02:15:05.830Z,1016.28
2016-01-26T02:16:05.911Z,1016.25
2016-01-26T02:17:05.932Z,1016.29
2016-01-26T02:18:05.997Z,1016.35
2016-01-26T02:19:06.046Z,1016.36
2016-01-26T02:20:06.097Z,1016.37
2016-01-26T02:21:06.163Z,1016.29
2016-01-26T02:22:06.213Z,1016.28
2016-01-26T02:23:06.293Z,1016.3
2016-01-26T02:24:06.327Z,1016.36
2016-01-26T02:25:06.394Z,1016.41
2016-01-26T02:26:06.427Z,1016.35
2016-01-26T02:27:06.495Z,1016.24
2016-01-26T02:28:06.545Z,1016.33
2016-01-26T02:29:06.612Z,1016.34
2016-01-26T02:30:06.661Z,1016.37
2016-01-26T02:31:06.710Z,1016.39
2016-01-26T02:32:06.777Z,1016.46
2016-01-26T02:33:06.827Z,1016.44
2016-01-26T02:34:06.876Z,1016.4
2016-01-26T02:35:06.941Z,1016.42
2016-01-26T02:36:06.996Z,1016.34
2016-01-26T02:37:07.047Z,1016.3
2016-01-26T02:38:07.097Z,1016.35
2016-01-26T02:39:07.162Z,1016.36
2016-01-26T02:40:07.212Z,1016.4
2016-01-26T02:41:07.277Z,1016.38
2016-01-26T02:42:07.327Z,1016.4
2016-01-26T02:43:07.376Z,1016.4
2016-01-26T02:44:07.443Z,1016.38
2016-01-26T02:45:07.493Z,1016.34
2016-01-26T02:46:07.558Z,1016.29
2016-01-26T02:47:07.607Z,1016.28
2016-01-26T02:48:07.657Z,1016.32
2016-01-26T02:49:07.709Z,1016.3
2016-01-26T02:50:07.774Z,1016.29
2016-01-26T02:51:07.823Z,1016.31
2016-01-26T02:52:07.875Z,1016.32
2016-01-26T02:53:07.940Z,1016.31
2016-01-26T02:54:08.005Z,1016.31
2016-01-26T02:55:08.055Z,1016.37
2016-01-26T02:56:08.107Z,1016.41
2016-01-26T02:57:08.157Z,1016.4
2016-01-26T02:58:08.224Z,1016.35
2016-01-26T02:59:08.262Z,1016.3
2016-01-26T03:00:08.326Z,1016.32
2016-01-26T03:01:08.377Z,1016.24
2016-01-26T03:02:08.442Z,1016.24
2016-01-26T03:03:08.492Z,1016.16
2016-01-26T03:04:08.543Z,1016.22
2016-01-26T03:05:08.624Z,1016.26
2016-01-26T03:06:08.658Z,1016.22
2016-01-26T03:07:08.707Z,1016.22
2016-01-26T03:08:08.773Z,1016.2
2016-01-26T03:09:08.826Z,1016.23
2016-01-26T03:10:08.876Z,1016.26
2016-01-26T03:11:08.956Z,1016.31
2016-01-26T03:12:08.989Z,1016.32
2016-01-26T03:13:09.057Z,1016.38
2016-01-26T03:14:09.109Z,1016.3
2016-01-26T03:15:09.159Z,1016.32
2016-01-26T03:16:09.209Z,1016.32
2016-01-26T03:17:09.275Z,1016.26
2016-01-26T03:18:09.325Z,1016.29
2016-01-26T03:19:09.391Z,1016.28
2016-01-26T03:20:09.443Z,1016.28
2016-01-26T03:21:09.492Z,1016.3
2016-01-26T03:22:09.558Z,1016.29
2016-01-26T03:23:09.608Z,1016.35
2016-01-26T03:24:09.659Z,1016.36
2016-01-26T03:25:09.724Z,1016.36
2016-01-26T03:26:09.775Z,1016.41
2016-01-26T03:27:09.825Z,1016.47
2016-01-26T03:28:09.875Z,1016.46
2016-01-26T03:29:09.942Z,1016.48
2016-01-26T03:30:09.990Z,1016.51
2016-01-26T03:31:10.073Z,1016.48
2016-01-26T03:32:10.107Z,1016.52
2016-01-26T03:33:10.157Z,1016.57
2016-01-26T03:34:10.222Z,1016.58
2016-01-26T03:35:10.271Z,1016.59
2016-01-26T03:36:10.323Z,1016.61
2016-01-26T03:37:10.388Z,1016.52
2016-01-26T03:38:10.437Z,1016.48
2016-01-26T03:39:10.487Z,1016.49
2016-01-26T03:40:10.556Z,1016.49
2016-01-26T03:41:10.605Z,1016.52
2016-01-26T03:42:10.654Z,1016.5
2016-01-26T03:43:10.720Z,1016.47
2016-01-26T03:44:10.770Z,1016.42
2016-01-26T03:45:10.820Z,1016.37
2016-01-26T03:46:10.901Z,1016.39
2016-01-26T03:47:10.951Z,1016.4
2016-01-26T03:48:10.988Z,1016.43
2016-01-26T03:49:11.052Z,1016.44
2016-01-26T03:50:11.102Z,1016.46
2016-01-26T03:51:11.152Z,1016.51
2016-01-26T03:52:11.217Z,1016.46
2016-01-26T03:53:11.268Z,1016.56
2016-01-26T03:54:11.348Z,1016.45
2016-01-26T03:55:11.383Z,1016.5
2016-01-26T03:56:11.434Z,1016.52
2016-01-26T03:57:11.500Z,1016.53
2016-01-26T03:58:11.581Z,1016.47
2016-01-26T03:59:11.600Z,1016.47
2016-01-26T04:00:11.667Z,1016.46
2016-01-26T04:01:11.717Z,1016.5
2016-01-26T04:02:11.783Z,1016.49
2016-01-26T04:03:11.821Z,1016.53
2016-01-26T04:04:11.885Z,1016.56
2016-01-26T04:05:11.951Z,1016.55
2016-01-26T04:06:11.985Z,1016.54
2016-01-26T04:07:12.049Z,1016.6
2016-01-26T04:08:12.133Z,1016.67
2016-01-26T04:09:12.166Z,1016.6
2016-01-26T04:10:12.216Z,1016.63
2016-01-26T04:11:12.280Z,1016.62
2016-01-26T04:12:12.331Z,1016.59
2016-01-26T04:13:12.381Z,1016.51
2016-01-26T04:14:12.446Z,1016.51
2016-01-26T04:15:12.496Z,1016.51
2016-01-26T04:16:12.546Z,1016.53
2016-01-26T04:17:12.615Z,1016.5
2016-01-26T04:18:12.664Z,1016.53
2016-01-26T04:19:12.714Z,1016.55
2016-01-26T04:20:12.764Z,1016.53
2016-01-26T04:21:12.830Z,1016.54
2016-01-26T04:22:12.895Z,1016.6
2016-01-26T04:23:12.928Z,1016.61
2016-01-26T04:24:12.995Z,1016.57
2016-01-26T04:25:13.045Z,1016.66
2016-01-26T04:26:13.110Z,1016.66
2016-01-26T04:27:13.153Z,1016.65
2016-01-26T04:28:13.219Z,1016.64
2016-01-26T04:29:13.271Z,1016.6
2016-01-26T04:30:13.319Z,1016.69
2016-01-26T04:31:13.385Z,1016.63
2016-01-26T04:32:13.436Z,1016.7
2016-01-26T04:33:13.501Z,1016.71
2016-01-26T04:34:13.550Z,1016.71
2016-01-26T04:35:13.600Z,1016.71
2016-01-26T04:36:13.666Z,1016.8
2016-01-26T04:37:13.732Z,1016.75
2016-01-26T04:38:13.766Z,1016.74
2016-01-26T04:39:13.833Z,1016.74
2016-01-26T04:40:13.882Z,1016.8
2016-01-26T04:41:13.984Z,1016.76
2016-01-26T04:42:14.018Z,1016.74
2016-01-26T04:43:14.053Z,1016.76
2016-01-26T04:44:14.103Z,1016.81
2016-01-26T04:45:14.152Z,1016.8
2016-01-26T04:46:14.217Z,1016.75
2016-01-26T04:47:14.284Z,1016.73
2016-01-26T04:48:14.319Z,1016.7
2016-01-26T04:49:14.384Z,1016.75
2016-01-26T04:50:14.435Z,1016.78
2016-01-26T04:51:14.500Z,1016.75
2016-01-26T04:52:14.549Z,1016.75
2016-01-26T04:53:14.599Z,1016.75
2016-01-26T04:54:14.666Z,1016.76
2016-01-26T04:55:14.715Z,1016.75
2016-01-26T04:56:14.769Z,1016.74
2016-01-26T04:57:14.819Z,1016.68
2016-01-26T04:58:14.885Z,1016.69
2016-01-26T04:59:14.935Z,1016.68
2016-01-26T05:00:14.984Z,1016.66
2016-01-26T05:01:15.051Z,1016.65
2016-01-26T05:02:15.101Z,1016.66
2016-01-26T05:03:15.165Z,1016.62
2016-01-26T05:04:15.217Z,1016.59
2016-01-26T05:05:15.267Z,1016.57
2016-01-26T05:06:15.316Z,1016.59
2016-01-26T05:07:15.381Z,1016.6
2016-01-26T05:08:15.433Z,1016.62
2016-01-26T05:09:15.484Z,1016.64
2016-01-26T05:10:15.549Z,1016.58
2016-01-26T05:11:15.598Z,1016.64
2016-01-26T05:12:15.663Z,1016.66
2016-01-26T05:13:15.714Z,1016.65
2016-01-26T05:14:15.764Z,1016.65
2016-01-26T05:15:15.828Z,1016.62
2016-01-26T05:16:15.880Z,1016.59
2016-01-26T05:17:15.929Z,1016.59
2016-01-26T05:18:15.994Z,1016.55
2016-01-26T05:19:16.043Z,1016.64
2016-01-26T05:20:16.096Z,1016.58
2016-01-26T05:21:16.162Z,1016.57
2016-01-26T05:22:16.210Z,1016.57
2016-01-26T05:23:16.260Z,1016.57
2016-01-26T05:24:16.326Z,1016.6
2016-01-26T05:25:16.378Z,1016.63
2016-01-26T05:26:16.432Z,1016.63
2016-01-26T05:27:16.484Z,1016.62
2016-01-26T05:28:16.552Z,1016.62
2016-01-26T05:29:16.601Z,1016.6
2016-01-26T05:30:16.666Z,1016.6
2016-01-26T05:31:16.715Z,1016.58
2016-01-26T05:32:16.766Z,1016.58
2016-01-26T05:33:16.831Z,1016.58
2016-01-26T05:34:16.881Z,1016.57
2016-01-26T05:35:16.931Z,1016.59
2016-01-26T05:36:16.996Z,1016.57
2016-01-26T05:37:17.046Z,1016.52
2016-01-26T05:38:17.095Z,1016.54
2016-01-26T05:39:17.162Z,1016.47
2016-01-26T05:40:17.213Z,1016.48
2016-01-26T05:41:17.261Z,1016.5
2016-01-26T05:42:17.327Z,1016.49
2016-01-26T05:43:17.376Z,1016.54
2016-01-26T05:44:17.442Z,1016.51
2016-01-26T05:45:17.491Z,1016.52
2016-01-26T05:46:17.541Z,1016.5
2016-01-26T05:47:17.622Z,1016.5
2016-01-26T05:48:17.655Z,1016.51
2016-01-26T05:49:17.706Z,1016.53
2016-01-26T05:50:17.755Z,1016.55
2016-01-26T05:51:17.821Z,1016.6
2016-01-26T05:52:17.872Z,1016.57
2016-01-26T05:53:17.937Z,1016.57
2016-01-26T05:54:18.286Z,1016.63
2016-01-26T05:55:18.045Z,1016.56
2016-01-26T05:56:18.094Z,1016.55
2016-01-26T05:57:18.160Z,1016.58
2016-01-26T05:58:18.210Z,1016.55
2016-01-26T05:59:18.260Z,1016.55
2016-01-26T06:00:18.309Z,1016.57
2016-01-26T06:01:18.375Z,1016.59
2016-01-26T06:02:18.425Z,1016.56
2016-01-26T06:03:18.490Z,1016.53
2016-01-26T06:04:18.542Z,1016.56
2016-01-26T06:05:18.608Z,1016.55
2016-01-26T06:06:18.658Z,1016.53
2016-01-26T06:07:18.706Z,1016.55
2016-01-26T06:08:18.756Z,1016.55
2016-01-26T06:09:18.823Z,1016.53
2016-01-26T06:10:18.873Z,1016.54
2016-01-26T06:11:18.922Z,1016.47
2016-01-26T06:12:19.003Z,1016.45
2016-01-26T06:13:19.038Z,1016.42
2016-01-26T06:14:19.102Z,1016.42
2016-01-26T06:15:19.152Z,1016.44
2016-01-26T06:16:19.203Z,1016.37
2016-01-26T06:17:19.269Z,1016.37
2016-01-26T06:18:19.317Z,1016.33
2016-01-26T06:19:19.366Z,1016.34
2016-01-26T06:20:19.433Z,1016.31
2016-01-26T06:21:19.483Z,1016.29
2016-01-26T06:22:19.533Z,1016.32
2016-01-26T06:23:19.598Z,1016.33
2016-01-26T06:24:19.663Z,1016.31
2016-01-26T06:25:19.711Z,1016.31
2016-01-26T06:26:19.760Z,1016.3
2016-01-26T06:27:19.810Z,1016.31
2016-01-26T06:28:19.877Z,1016.32
2016-01-26T06:29:19.927Z,1016.3
2016-01-26T06:30:19.975Z,1016.29
2016-01-26T06:31:20.041Z,1016.33
2016-01-26T06:32:20.091Z,1016.31
2016-01-26T06:33:20.144Z,1016.3
2016-01-26T06:34:20.209Z,1016.3
2016-01-26T06:35:20.275Z,1016.29
2016-01-26T06:36:20.310Z,1016.33
2016-01-26T06:37:20.374Z,1016.37
2016-01-26T06:38:20.439Z,1016.37
2016-01-26T06:39:20.490Z,1016.36
2016-01-26T06:40:20.543Z,1016.34
2016-01-26T06:41:20.592Z,1016.37
2016-01-26T06:42:20.657Z,1016.36
2016-01-26T06:43:20.707Z,1016.39
2016-01-26T06:44:20.757Z,1016.35
2016-01-26T06:45:20.853Z,1016.32
2016-01-26T06:46:20.872Z,1016.33
2016-01-26T06:47:20.922Z,1016.36
2016-01-26T06:48:20.988Z,1016.37
2016-01-26T06:49:21.037Z,1016.38
2016-01-26T06:50:21.104Z,1016.38
2016-01-26T06:51:21.153Z,1016.39
2016-01-26T06:52:21.203Z,1016.36
2016-01-26T06:53:21.272Z,1016.36
2016-01-26T06:54:21.322Z,1016.33
2016-01-26T06:55:21.377Z,1016.33
2016-01-26T06:56:21.458Z,1016.29
2016-01-26T06:57:21.492Z,1016.33
2016-01-26T06:58:21.542Z,1016.37
2016-01-26T06:59:21.591Z,1016.3
2016-01-26T07:00:21.657Z,1016.24
2016-01-26T07:01:21.707Z,1016.31
2016-01-26T07:02:21.757Z,1016.26
2016-01-26T07:03:21.837Z,1016.27
2016-01-26T07:04:21.871Z,1016.3
2016-01-26T07:05:21.938Z,1016.33
2016-01-26T07:06:21.987Z,1016.34
2016-01-26T07:07:22.036Z,1016.36
2016-01-26T07:08:22.102Z,1016.39
2016-01-26T07:09:22.152Z,1016.43
2016-01-26T07:10:22.202Z,1016.44
2016-01-26T07:11:22.266Z,1016.45
2016-01-26T07:12:22.320Z,1016.41
2016-01-26T07:13:22.369Z,1016.37
2016-01-26T07:14:22.433Z,1016.34
2016-01-26T07:15:22.483Z,1016.32
2016-01-26T07:16:22.533Z,1016.37
2016-01-26T07:17:22.600Z,1016.32
2016-01-26T07:18:22.648Z,1016.27
2016-01-26T07:19:22.714Z,1016.26
2016-01-26T07:20:22.764Z,1016.23
2016-01-26T07:21:22.815Z,1016.28
2016-01-26T07:22:22.879Z,1016.26
2016-01-26T07:23:22.929Z,1016.16
2016-01-26T07:24:22.980Z,1016.22
2016-01-26T07:25:23.032Z,1016.25
2016-01-26T07:26:23.097Z,1016.23
2016-01-26T07:27:23.147Z,1016.23
2016-01-26T07:28:23.213Z,1016.24
2016-01-26T07:29:23.263Z,1016.28
2016-01-26T07:30:23.312Z,1016.32
2016-01-26T07:31:23.378Z,1016.36
2016-01-26T07:32:23.428Z,1016.36
2016-01-26T07:33:23.478Z,1016.4
2016-01-26T07:34:23.934Z,1016.32
2016-01-26T07:35:23.608Z,1016.34
2016-01-26T07:36:23.651Z,1016.5
2016-01-26T07:37:23.731Z,1016.48
2016-01-26T07:38:23.765Z,1016.51
2016-01-26T07:39:23.815Z,1016.42
2016-01-26T07:40:23.865Z,1016.41
2016-01-26T07:41:23.929Z,1016.39
2016-01-26T07:42:23.979Z,1016.28
2016-01-26T07:43:24.029Z,1016.2
2016-01-26T07:44:24.093Z,1016.15
2016-01-26T07:45:24.145Z,1016.19
2016-01-26T07:46:24.211Z,1016.16
2016-01-26T07:47:24.260Z,1016.23
2016-01-26T07:48:24.309Z,1016.25
2016-01-26T07:49:24.375Z,1016.29
2016-01-26T07:50:24.426Z,1016.28
2016-01-26T07:51:24.475Z,1016.31
2016-01-26T07:52:24.551Z,1016.35
2016-01-26T07:53:24.577Z,1016.37
2016-01-26T07:54:24.627Z,1016.4
2016-01-26T07:55:24.669Z,1016.37
2016-01-26T07:56:24.724Z,1016.36
2016-01-26T07:57:24.770Z,1016.37
2016-01-26T07:58:24.816Z,1016.33
2016-01-26T07:59:24.863Z,1016.33
2016-01-26T08:00:24.924Z,1016.32
2016-01-26T08:01:24.971Z,1016.25
2016-01-26T08:02:25.020Z,1016.24
2016-01-26T08:03:25.099Z,1016.23
2016-01-26T08:04:25.147Z,1016.32
2016-01-26T08:05:25.198Z,1016.27
2016-01-26T08:06:25.246Z,1016.28
2016-01-26T08:07:25.310Z,1016.31
2016-01-26T08:08:25.359Z,1016.29
2016-01-26T08:09:25.410Z,1016.24
2016-01-26T08:10:25.474Z,1016.13
2016-01-26T08:11:25.523Z,1016.18
2016-01-26T08:12:25.573Z,1016.2
2016-01-26T08:13:25.638Z,1016.15
2016-01-26T08:14:25.687Z,1016.05
2016-01-26T08:15:25.752Z,1016.05
2016-01-26T08:16:25.802Z,1016.11
2016-01-26T08:17:25.853Z,1016.14
2016-01-26T08:18:25.918Z,1016.14
2016-01-26T08:19:25.968Z,1016.12
2016-01-26T08:20:26.017Z,1016.13
2016-01-26T08:21:26.083Z,1016.12
2016-01-26T08:22:26.132Z,1016.09
2016-01-26T08:23:26.183Z,1016.05
2016-01-26T08:24:26.248Z,1016.06
2016-01-26T08:25:26.304Z,1016.01
2016-01-26T08:26:26.353Z,1016.02
2016-01-26T08:27:26.403Z,1016.03
2016-01-26T08:28:26.469Z,1016.02
2016-01-26T08:29:26.519Z,1015.98
2016-01-26T08:30:26.569Z,1016.03
2016-01-26T08:31:26.634Z,1016.03
2016-01-26T08:32:26.746Z,1015.99
2016-01-26T08:33:26.736Z,1016.01
2016-01-26T08:34:26.802Z,1016.05
2016-01-26T08:35:26.852Z,1016.03
2016-01-26T08:36:26.902Z,1016.06
2016-01-26T08:37:26.967Z,1016.04
2016-01-26T08:38:27.021Z,1016.06
2016-01-26T08:39:27.086Z,1016.11
2016-01-26T08:40:27.135Z,1016.13
2016-01-26T08:41:27.188Z,1016.12
2016-01-26T08:42:27.238Z,1016.11
2016-01-26T08:43:27.303Z,1016.21
2016-01-26T08:44:27.352Z,1016.12
2016-01-26T08:45:27.401Z,1016.13
2016-01-26T08:46:27.467Z,1016.06
2016-01-26T08:47:27.519Z,1016.01
2016-01-26T08:48:27.583Z,1016
2016-01-26T08:49:27.664Z,1016.07
2016-01-26T08:50:27.701Z,1016.01
2016-01-26T08:51:27.736Z,1015.97
2016-01-26T08:52:27.785Z,1015.96
2016-01-26T08:53:27.844Z,1015.92
2016-01-26T08:54:27.910Z,1015.91
2016-01-26T08:55:27.961Z,1015.91
2016-01-26T08:56:28.009Z,1015.96
2016-01-26T08:57:28.075Z,1015.96
2016-01-26T08:58:28.126Z,1015.96
2016-01-26T08:59:28.178Z,1015.93
2016-01-26T09:00:28.227Z,1016
2016-01-26T09:01:28.292Z,1015.98
2016-01-26T09:02:28.343Z,1016.03
2016-01-26T09:03:28.393Z,1016.05
2016-01-26T09:04:28.442Z,1016.02
2016-01-26T09:05:28.509Z,1016.05
2016-01-26T09:06:28.558Z,1016.06
2016-01-26T09:07:28.670Z,1016.05
2016-01-26T09:08:28.720Z,1016.03
2016-01-26T09:09:28.721Z,1016.08
2016-01-26T09:10:28.771Z,1016.08
2016-01-26T09:11:28.836Z,1016.1
2016-01-26T09:12:28.886Z,1016.12
2016-01-26T09:13:28.937Z,1016.1
2016-01-26T09:14:28.991Z,1016.08
2016-01-26T09:15:29.102Z,1016.05
2016-01-26T09:16:29.121Z,1016.06
2016-01-26T09:17:29.154Z,1016.05
2016-01-26T09:18:29.220Z,1016.05
2016-01-26T09:19:29.264Z,1016.02
2016-01-26T09:20:29.314Z,1016.05
2016-01-26T09:21:29.378Z,1015.96
2016-01-26T09:22:29.425Z,1015.95
2016-01-26T09:23:29.492Z,1015.97
2016-01-26T09:24:29.540Z,1015.91
2016-01-26T09:25:29.590Z,1015.96
2016-01-26T09:26:29.656Z,1015.86
2016-01-26T09:27:29.706Z,1015.88
2016-01-26T09:28:29.756Z,1015.91
2016-01-26T09:29:29.805Z,1015.89
2016-01-26T09:30:29.859Z,1015.87
2016-01-26T09:31:29.910Z,1015.88
2016-01-26T09:32:29.975Z,1015.86
2016-01-26T09:33:30.023Z,1015.89
2016-01-26T09:34:30.089Z,1015.85
2016-01-26T09:35:30.140Z,1015.88
2016-01-26T09:36:30.251Z,1015.82
2016-01-26T09:37:30.239Z,1015.85
2016-01-26T09:38:30.301Z,1015.86
2016-01-26T09:39:30.350Z,1015.91
2016-01-26T09:40:30.415Z,1015.86
2016-01-26T09:41:30.464Z,1015.86
2016-01-26T09:42:30.513Z,1015.83
2016-01-26T09:43:30.581Z,1015.86
2016-01-26T09:44:30.630Z,1015.82
2016-01-26T09:45:30.679Z,1015.88
2016-01-26T09:46:30.728Z,1015.84
2016-01-26T09:47:30.794Z,1015.84
2016-01-26T09:48:30.844Z,1015.85
2016-01-26T09:49:30.897Z,1015.86
2016-01-26T09:50:30.946Z,1015.85
2016-01-26T09:51:31.028Z,1015.78
2016-01-26T09:52:31.062Z,1015.82
2016-01-26T09:53:31.111Z,1015.81
2016-01-26T09:54:31.169Z,1015.76
2016-01-26T09:55:31.234Z,1015.74
2016-01-26T09:56:31.285Z,1015.73
2016-01-26T09:57:31.334Z,1015.74
2016-01-26T09:58:31.383Z,1015.76
2016-01-26T09:59:31.433Z,1015.7
2016-01-26T10:00:31.499Z,1015.63
2016-01-26T10:01:31.549Z,1015.65
2016-01-26T10:02:31.598Z,1015.68
2016-01-26T10:03:31.664Z,1015.64
2016-01-26T10:04:31.714Z,1015.65
2016-01-26T10:05:31.779Z,1015.65
2016-01-26T10:06:31.828Z,1015.62
2016-01-26T10:07:31.880Z,1015.69
2016-01-26T10:08:31.929Z,1015.7
2016-01-26T10:09:31.993Z,1015.66
2016-01-26T10:10:32.044Z,1015.61
2016-01-26T10:11:32.093Z,1015.6
2016-01-26T10:12:32.160Z,1015.61
2016-01-26T10:13:32.209Z,1015.58
2016-01-26T10:14:32.259Z,1015.63
2016-01-26T10:15:32.324Z,1015.58
2016-01-26T10:16:32.374Z,1015.58
2016-01-26T10:17:32.486Z,1015.55
2016-01-26T10:18:32.489Z,1015.55
2016-01-26T10:19:32.539Z,1015.5
2016-01-26T10:20:32.591Z,1015.5
2016-01-26T10:21:32.641Z,1015.51
2016-01-26T10:22:32.705Z,1015.51
2016-01-26T10:23:32.757Z,1015.51
2016-01-26T10:24:32.809Z,1015.48
2016-01-26T10:25:32.874Z,1015.45
2016-01-26T10:26:32.927Z,1015.44
2016-01-26T10:27:32.977Z,1015.44
2016-01-26T10:28:33.028Z,1015.46
2016-01-26T10:29:33.092Z,1015.39
2016-01-26T10:30:33.142Z,1015.42
2016-01-26T10:31:33.191Z,1015.41
2016-01-26T10:32:33.259Z,1015.38
2016-01-26T10:33:33.307Z,1015.4
2016-01-26T10:34:33.356Z,1015.39
2016-01-26T10:35:33.422Z,1015.41
2016-01-26T10:36:33.472Z,1015.4
2016-01-26T10:37:33.538Z,1015.38
2016-01-26T10:38:33.587Z,1015.41
2016-01-26T10:39:33.639Z,1015.39
2016-01-26T10:40:33.708Z,1015.36
2016-01-26T10:41:33.757Z,1015.34
2016-01-26T10:42:33.807Z,1015.34
2016-01-26T10:43:33.857Z,1015.32
2016-01-26T10:44:33.908Z,1015.28
2016-01-26T10:45:33.972Z,1015.26
2016-01-26T10:46:34.022Z,1015.19
2016-01-26T10:47:34.072Z,1015.21
2016-01-26T10:48:34.138Z,1015.17
2016-01-26T10:49:34.191Z,1015.17
2016-01-26T10:50:34.240Z,1015.16
2016-01-26T10:51:34.292Z,1015.15
2016-01-26T10:52:34.358Z,1015.1
2016-01-26T10:53:34.400Z,1015.08
2016-01-26T10:54:34.465Z,1015.07
2016-01-26T10:55:34.515Z,1015.07
2016-01-26T10:56:34.581Z,1015.06
2016-01-26T10:57:34.631Z,1014.99
2016-01-26T10:58:34.680Z,1015.01
2016-01-26T10:59:34.751Z,1014.95
2016-01-26T11:00:34.785Z,1014.98
2016-01-26T11:01:34.854Z,1014.91
2016-01-26T11:02:34.904Z,1014.92
2016-01-26T11:03:34.954Z,1014.92
2016-01-26T11:04:35.004Z,1014.89
2016-01-26T11:05:35.070Z,1014.89
2016-01-26T11:06:35.119Z,1014.92
2016-01-26T11:07:35.186Z,1014.91
2016-01-26T11:08:35.235Z,1014.86
2016-01-26T11:09:35.285Z,1014.85
2016-01-26T11:10:35.350Z,1014.81
2016-01-26T11:11:35.401Z,1014.8
2016-01-26T11:12:35.450Z,1014.75
2016-01-26T11:13:35.515Z,1014.78
2016-01-26T11:14:35.565Z,1014.79
2016-01-26T11:15:35.615Z,1014.71
2016-01-26T11:16:35.680Z,1014.7
2016-01-26T11:17:35.730Z,1014.68
2016-01-26T11:18:35.781Z,1014.69
2016-01-26T11:19:35.846Z,1014.59
2016-01-26T11:20:35.895Z,1014.6
2016-01-26T11:21:35.945Z,1014.58
2016-01-26T11:22:35.994Z,1014.54
2016-01-26T11:23:36.064Z,1014.54
2016-01-26T11:24:36.113Z,1014.49
2016-01-26T11:25:36.165Z,1014.48
2016-01-26T11:26:36.214Z,1014.52
2016-01-26T11:27:36.280Z,1014.5
2016-01-26T11:28:36.345Z,1014.47
2016-01-26T11:29:36.379Z,1014.46
2016-01-26T11:30:36.446Z,1014.42
2016-01-26T11:31:36.510Z,1014.35
2016-01-26T11:32:36.560Z,1014.38
2016-01-26T11:33:36.610Z,1014.36
2016-01-26T11:34:36.661Z,1014.35
2016-01-26T11:35:36.742Z,1014.3
2016-01-26T11:36:36.777Z,1014.28
2016-01-26T11:37:36.831Z,1014.26
2016-01-26T11:38:36.880Z,1014.26
2016-01-26T11:39:36.945Z,1014.23
2016-01-26T11:40:36.994Z,1014.23
2016-01-26T11:41:37.045Z,1014.13
2016-01-26T11:42:37.111Z,1014.16
2016-01-26T11:43:37.160Z,1014.12
2016-01-26T11:44:37.212Z,1014.12
2016-01-26T11:45:37.277Z,1014.08
2016-01-26T11:46:37.328Z,1014.07
2016-01-26T11:47:37.377Z,1013.99
2016-01-26T11:48:37.442Z,1013.98
2016-01-26T11:49:37.492Z,1013.96
2016-01-26T11:50:37.558Z,1013.94
2016-01-26T11:51:37.596Z,1013.88
2016-01-26T11:52:37.660Z,1013.91
2016-01-26T11:53:37.713Z,1013.81
2016-01-26T11:54:37.762Z,1013.82
2016-01-26T11:55:37.827Z,1013.76
2016-01-26T11:56:37.877Z,1013.8
2016-01-26T11:57:37.927Z,1013.77
2016-01-26T11:58:37.982Z,1013.77
2016-01-26T11:59:38.046Z,1013.78
2016-01-26T12:00:38.096Z,1013.79
2016-01-26T12:01:38.162Z,1013.8
2016-01-26T12:02:38.213Z,1013.81
2016-01-26T12:03:38.258Z,1013.87
2016-01-26T12:04:38.323Z,1013.82
2016-01-26T12:05:38.374Z,1013.83
2016-01-26T12:06:38.423Z,1013.8
2016-01-26T12:07:38.488Z,1013.79
2016-01-26T12:08:38.538Z,1013.78
2016-01-26T12:09:38.588Z,1013.76